sensor_id;sensor_type;location;lat;lon;timestamp;P1;durP1;ratioP1;P2;durP2;ratioP2
10013;SDS011;45684;48.358;10.746;2023-02-28T00:01:23;4.23;;;2.93;;
10013;SDS011;45684;48.358;10.746;2023-02-28T00:03:51;3.10;;;2.80;;
10013;SDS011;45684;48.358;10.746;2023-02-28T00:06:20;3.93;;;2.90;;
10013;SDS011;45684;48.358;10.746;2023-02-28T00:08:48;3.23;;;2.93;;
10013;SDS011;45684;48.358;10.746;2023-02-28T00:11:16;3.17;;;2.70;;
10013;SDS011;45684;48.358;10.746;2023-02-28T00:13:45;3.87;;;3.00;;
10013;SDS011;45684;48.358;10.746;2023-02-28T00:16:14;3.20;;;3.00;;
10013;SDS011;45684;48.358;10.746;2023-02-28T00:18:45;3.07;;;2.77;;
10013;SDS011;45684;48.358;10.746;2023-02-28T00:21:13;3.50;;;3.20;;
10013;SDS011;45684;48.358;10.746;2023-02-28T00:23:43;4.27;;;3.10;;
10013;SDS011;45684;48.358;10.746;2023-02-28T00:26:11;3.40;;;2.90;;
10013;SDS011;45684;48.358;10.746;2023-02-28T00:28:42;3.10;;;2.80;;
10013;SDS011;45684;48.358;10.746;2023-02-28T00:31:10;4.07;;;3.47;;
10013;SDS011;45684;48.358;10.746;2023-02-28T00:33:38;3.40;;;2.83;;
10013;SDS011;45684;48.358;10.746;2023-02-28T00:36:07;4.87;;;3.00;;
10013;SDS011;45684;48.358;10.746;2023-02-28T00:38:36;3.30;;;3.00;;
10013;SDS011;45684;48.358;10.746;2023-02-28T00:41:06;3.00;;;2.80;;
10013;SDS011;45684;48.358;10.746;2023-02-28T00:43:35;3.40;;;2.97;;
10013;SDS011;45684;48.358;10.746;2023-02-28T00:46:04;3.27;;;2.97;;
10013;SDS011;45684;48.358;10.746;2023-02-28T00:48:32;3.20;;;2.90;;
10013;SDS011;45684;48.358;10.746;2023-02-28T00:51:00;3.07;;;2.87;;
10013;SDS011;45684;48.358;10.746;2023-02-28T00:53:29;3.83;;;2.87;;
10013;SDS011;45684;48.358;10.746;2023-02-28T00:55:58;3.33;;;3.07;;
10013;SDS011;45684;48.358;10.746;2023-02-28T00:58:28;3.47;;;3.17;;
10013;SDS011;45684;48.358;10.746;2023-02-28T01:00:56;3.30;;;3.00;;
10013;SDS011;45684;48.358;10.746;2023-02-28T01:03:24;3.60;;;3.30;;
10013;SDS011;45684;48.358;10.746;2023-02-28T01:05:52;3.60;;;3.00;;
10013;SDS011;45684;48.358;10.746;2023-02-28T01:08:20;3.70;;;3.30;;
10013;SDS011;45684;48.358;10.746;2023-02-28T01:10:49;3.73;;;3.43;;
10013;SDS011;45684;48.358;10.746;2023-02-28T01:13:17;3.70;;;3.37;;
10013;SDS011;45684;48.358;10.746;2023-02-28T01:15:48;3.20;;;2.83;;
10013;SDS011;45684;48.358;10.746;2023-02-28T01:18:18;3.67;;;3.30;;
10013;SDS011;45684;48.358;10.746;2023-02-28T01:20:46;4.53;;;3.13;;
10013;SDS011;45684;48.358;10.746;2023-02-28T01:23:15;3.50;;;3.20;;
10013;SDS011;45684;48.358;10.746;2023-02-28T01:25:43;4.17;;;3.10;;
10013;SDS011;45684;48.358;10.746;2023-02-28T01:28:11;3.57;;;3.27;;
10013;SDS011;45684;48.358;10.746;2023-02-28T01:30:38;5.30;;;3.30;;
10013;SDS011;45684;48.358;10.746;2023-02-28T01:33:08;3.73;;;3.40;;
10013;SDS011;45684;48.358;10.746;2023-02-28T01:35:35;5.30;;;3.53;;
10013;SDS011;45684;48.358;10.746;2023-02-28T01:38:04;3.50;;;3.10;;
10013;SDS011;45684;48.358;10.746;2023-02-28T01:40:46;3.50;;;3.20;;
10013;SDS011;45684;48.358;10.746;2023-02-28T01:43:16;3.50;;;3.17;;
10013;SDS011;45684;48.358;10.746;2023-02-28T01:45:48;3.43;;;3.13;;
10013;SDS011;45684;48.358;10.746;2023-02-28T01:48:18;4.60;;;3.60;;
10013;SDS011;45684;48.358;10.746;2023-02-28T01:50:48;3.67;;;3.17;;
10013;SDS011;45684;48.358;10.746;2023-02-28T01:53:19;4.70;;;3.57;;
10013;SDS011;45684;48.358;10.746;2023-02-28T01:55:52;3.43;;;3.13;;
10013;SDS011;45684;48.358;10.746;2023-02-28T01:58:21;3.40;;;3.10;;
10013;SDS011;45684;48.358;10.746;2023-02-28T02:00:48;7.33;;;3.83;;
10013;SDS011;45684;48.358;10.746;2023-02-28T02:03:18;3.70;;;3.37;;
10013;SDS011;45684;48.358;10.746;2023-02-28T02:05:47;3.57;;;3.27;;
10013;SDS011;45684;48.358;10.746;2023-02-28T02:08:17;3.97;;;3.23;;
10013;SDS011;45684;48.358;10.746;2023-02-28T02:10:47;3.43;;;3.13;;
10013;SDS011;45684;48.358;10.746;2023-02-28T02:13:29;3.57;;;3.07;;
10013;SDS011;45684;48.358;10.746;2023-02-28T02:16:08;3.47;;;3.17;;
10013;SDS011;45684;48.358;10.746;2023-02-28T02:18:45;4.10;;;3.53;;
10013;SDS011;45684;48.358;10.746;2023-02-28T02:21:25;4.03;;;3.63;;
10013;SDS011;45684;48.358;10.746;2023-02-28T02:24:20;3.70;;;3.40;;
10013;SDS011;45684;48.358;10.746;2023-02-28T02:27:18;3.80;;;3.40;;
10013;SDS011;45684;48.358;10.746;2023-02-28T02:30:04;3.60;;;3.20;;
10013;SDS011;45684;48.358;10.746;2023-02-28T02:35:51;3.60;;;3.30;;
10013;SDS011;45684;48.358;10.746;2023-02-28T02:38:25;3.70;;;3.40;;
10013;SDS011;45684;48.358;10.746;2023-02-28T02:41:03;4.20;;;3.80;;
10013;SDS011;45684;48.358;10.746;2023-02-28T02:43:39;3.57;;;3.23;;
10013;SDS011;45684;48.358;10.746;2023-02-28T02:46:12;3.80;;;3.40;;
10013;SDS011;45684;48.358;10.746;2023-02-28T02:48:45;4.10;;;3.73;;
10013;SDS011;45684;48.358;10.746;2023-02-28T02:51:15;3.90;;;3.50;;
10013;SDS011;45684;48.358;10.746;2023-02-28T02:53:47;4.00;;;3.60;;
10013;SDS011;45684;48.358;10.746;2023-02-28T02:56:19;3.73;;;3.43;;
10013;SDS011;45684;48.358;10.746;2023-02-28T02:58:52;5.07;;;3.97;;
10013;SDS011;45684;48.358;10.746;2023-02-28T03:01:26;4.50;;;4.00;;
10013;SDS011;45684;48.358;10.746;2023-02-28T03:03:59;4.77;;;3.70;;
10013;SDS011;45684;48.358;10.746;2023-02-28T03:06:31;4.20;;;3.50;;
10013;SDS011;45684;48.358;10.746;2023-02-28T03:08:59;4.30;;;3.90;;
10013;SDS011;45684;48.358;10.746;2023-02-28T03:11:27;4.30;;;3.80;;
10013;SDS011;45684;48.358;10.746;2023-02-28T03:20:00;4.17;;;3.70;;
10013;SDS011;45684;48.358;10.746;2023-02-28T03:22:44;4.37;;;3.83;;
10013;SDS011;45684;48.358;10.746;2023-02-28T03:25:19;4.23;;;3.83;;
10013;SDS011;45684;48.358;10.746;2023-02-28T03:27:53;5.13;;;3.90;;
10013;SDS011;45684;48.358;10.746;2023-02-28T03:30:28;4.70;;;4.20;;
10013;SDS011;45684;48.358;10.746;2023-02-28T03:33:05;4.50;;;3.83;;
10013;SDS011;45684;48.358;10.746;2023-02-28T03:35:39;4.40;;;4.00;;
10013;SDS011;45684;48.358;10.746;2023-02-28T03:38:12;5.30;;;4.20;;
10013;SDS011;45684;48.358;10.746;2023-02-28T03:40:47;6.03;;;4.47;;
10013;SDS011;45684;48.358;10.746;2023-02-28T03:43:18;4.73;;;4.00;;
10013;SDS011;45684;48.358;10.746;2023-02-28T03:45:50;4.97;;;4.43;;
10013;SDS011;45684;48.358;10.746;2023-02-28T03:48:20;4.80;;;4.37;;
10013;SDS011;45684;48.358;10.746;2023-02-28T03:50:53;4.90;;;4.50;;
10013;SDS011;45684;48.358;10.746;2023-02-28T03:53:27;4.93;;;4.43;;
10013;SDS011;45684;48.358;10.746;2023-02-28T03:55:58;5.43;;;4.53;;
10013;SDS011;45684;48.358;10.746;2023-02-28T03:58:29;4.60;;;4.20;;
10013;SDS011;45684;48.358;10.746;2023-02-28T04:01:03;4.73;;;4.33;;
10013;SDS011;45684;48.358;10.746;2023-02-28T04:03:35;4.50;;;4.10;;
10013;SDS011;45684;48.358;10.746;2023-02-28T04:06:03;4.87;;;4.47;;
10013;SDS011;45684;48.358;10.746;2023-02-28T04:08:34;5.17;;;4.50;;
10013;SDS011;45684;48.358;10.746;2023-02-28T04:11:03;4.60;;;4.20;;
10013;SDS011;45684;48.358;10.746;2023-02-28T04:13:34;4.83;;;4.43;;
10013;SDS011;45684;48.358;10.746;2023-02-28T04:16:02;6.60;;;4.70;;
10013;SDS011;45684;48.358;10.746;2023-02-28T04:18:46;5.27;;;4.47;;
10013;SDS011;45684;48.358;10.746;2023-02-28T04:21:14;5.73;;;4.27;;
10013;SDS011;45684;48.358;10.746;2023-02-28T04:23:48;5.13;;;4.63;;
10013;SDS011;45684;48.358;10.746;2023-02-28T04:26:15;5.77;;;4.60;;
10013;SDS011;45684;48.358;10.746;2023-02-28T04:28:43;4.90;;;4.40;;
10013;SDS011;45684;48.358;10.746;2023-02-28T04:31:11;5.23;;;4.73;;
10013;SDS011;45684;48.358;10.746;2023-02-28T04:33:38;5.23;;;4.73;;
10013;SDS011;45684;48.358;10.746;2023-02-28T04:36:07;5.30;;;4.80;;
10013;SDS011;45684;48.358;10.746;2023-02-28T04:38:36;5.63;;;4.60;;
10013;SDS011;45684;48.358;10.746;2023-02-28T04:41:07;4.90;;;4.40;;
10013;SDS011;45684;48.358;10.746;2023-02-28T04:43:35;5.20;;;4.57;;
10013;SDS011;45684;48.358;10.746;2023-02-28T04:46:03;5.33;;;4.60;;
10013;SDS011;45684;48.358;10.746;2023-02-28T04:48:32;5.63;;;4.90;;
10013;SDS011;45684;48.358;10.746;2023-02-28T04:51:01;5.13;;;4.63;;
10013;SDS011;45684;48.358;10.746;2023-02-28T04:53:30;4.97;;;4.47;;
10013;SDS011;45684;48.358;10.746;2023-02-28T04:55:58;5.60;;;4.60;;
10013;SDS011;45684;48.358;10.746;2023-02-28T04:58:27;5.00;;;4.50;;
10013;SDS011;45684;48.358;10.746;2023-02-28T05:01:00;5.50;;;4.93;;
10013;SDS011;45684;48.358;10.746;2023-02-28T05:03:29;5.30;;;4.80;;
10013;SDS011;45684;48.358;10.746;2023-02-28T05:05:57;5.13;;;4.63;;
10013;SDS011;45684;48.358;10.746;2023-02-28T05:08:24;5.23;;;4.73;;
10013;SDS011;45684;48.358;10.746;2023-02-28T05:10:52;6.43;;;4.70;;
10013;SDS011;45684;48.358;10.746;2023-02-28T05:13:20;4.90;;;4.40;;
10013;SDS011;45684;48.358;10.746;2023-02-28T05:15:49;5.33;;;4.83;;
10013;SDS011;45684;48.358;10.746;2023-02-28T05:18:17;5.50;;;5.00;;
10013;SDS011;45684;48.358;10.746;2023-02-28T05:20:45;5.87;;;5.27;;
10013;SDS011;45684;48.358;10.746;2023-02-28T05:23:13;4.67;;;4.27;;
10013;SDS011;45684;48.358;10.746;2023-02-28T05:25:43;7.00;;;4.87;;
10013;SDS011;45684;48.358;10.746;2023-02-28T05:28:11;5.83;;;5.23;;
10013;SDS011;45684;48.358;10.746;2023-02-28T05:30:39;5.60;;;5.10;;
10013;SDS011;45684;48.358;10.746;2023-02-28T05:33:11;6.70;;;5.43;;
10013;SDS011;45684;48.358;10.746;2023-02-28T05:35:39;6.20;;;5.43;;
10013;SDS011;45684;48.358;10.746;2023-02-28T05:38:07;7.00;;;5.27;;
10013;SDS011;45684;48.358;10.746;2023-02-28T05:40:35;5.40;;;4.80;;
10013;SDS011;45684;48.358;10.746;2023-02-28T05:43:05;5.47;;;4.97;;
10013;SDS011;45684;48.358;10.746;2023-02-28T05:45:36;6.60;;;5.50;;
10013;SDS011;45684;48.358;10.746;2023-02-28T05:48:04;6.70;;;5.47;;
10013;SDS011;45684;48.358;10.746;2023-02-28T05:50:33;6.20;;;5.47;;
10013;SDS011;45684;48.358;10.746;2023-02-28T05:53:01;5.40;;;4.83;;
10013;SDS011;45684;48.358;10.746;2023-02-28T05:55:28;5.63;;;5.00;;
10013;SDS011;45684;48.358;10.746;2023-02-28T05:57:56;5.33;;;4.80;;
10013;SDS011;45684;48.358;10.746;2023-02-28T06:00:24;6.83;;;5.27;;
10013;SDS011;45684;48.358;10.746;2023-02-28T06:02:52;5.33;;;4.83;;
10013;SDS011;45684;48.358;10.746;2023-02-28T06:05:22;6.53;;;5.53;;
10013;SDS011;45684;48.358;10.746;2023-02-28T06:07:52;6.10;;;5.27;;
10013;SDS011;45684;48.358;10.746;2023-02-28T06:10:19;5.93;;;5.33;;
10013;SDS011;45684;48.358;10.746;2023-02-28T06:12:47;6.20;;;5.60;;
10013;SDS011;45684;48.358;10.746;2023-02-28T06:15:15;6.57;;;5.40;;
10013;SDS011;45684;48.358;10.746;2023-02-28T06:17:44;7.10;;;5.77;;
10013;SDS011;45684;48.358;10.746;2023-02-28T06:20:12;6.53;;;5.90;;
10013;SDS011;45684;48.358;10.746;2023-02-28T06:22:40;6.93;;;5.90;;
10013;SDS011;45684;48.358;10.746;2023-02-28T06:25:09;8.47;;;6.03;;
10013;SDS011;45684;48.358;10.746;2023-02-28T06:27:37;6.67;;;5.90;;
10013;SDS011;45684;48.358;10.746;2023-02-28T06:30:06;7.17;;;5.83;;
10013;SDS011;45684;48.358;10.746;2023-02-28T06:32:35;6.67;;;6.00;;
10013;SDS011;45684;48.358;10.746;2023-02-28T06:35:03;7.90;;;6.00;;
10013;SDS011;45684;48.358;10.746;2023-02-28T06:37:31;6.87;;;5.70;;
10013;SDS011;45684;48.358;10.746;2023-02-28T06:39:59;6.37;;;5.50;;
10013;SDS011;45684;48.358;10.746;2023-02-28T06:42:29;7.53;;;5.77;;
10013;SDS011;45684;48.358;10.746;2023-02-28T06:44:57;7.17;;;5.90;;
10013;SDS011;45684;48.358;10.746;2023-02-28T06:47:25;7.10;;;6.13;;
10013;SDS011;45684;48.358;10.746;2023-02-28T06:49:53;6.83;;;6.07;;
10013;SDS011;45684;48.358;10.746;2023-02-28T06:52:20;6.83;;;6.13;;
10013;SDS011;45684;48.358;10.746;2023-02-28T06:54:48;7.80;;;6.00;;
10013;SDS011;45684;48.358;10.746;2023-02-28T06:57:26;7.60;;;6.27;;
10013;SDS011;45684;48.358;10.746;2023-02-28T06:59:57;7.00;;;6.17;;
10013;SDS011;45684;48.358;10.746;2023-02-28T07:02:26;7.07;;;6.37;;
10013;SDS011;45684;48.358;10.746;2023-02-28T07:04:54;7.03;;;5.90;;
10013;SDS011;45684;48.358;10.746;2023-02-28T07:07:22;7.40;;;6.17;;
10013;SDS011;45684;48.358;10.746;2023-02-28T07:09:49;7.67;;;6.57;;
10013;SDS011;45684;48.358;10.746;2023-02-28T07:12:17;8.30;;;6.70;;
10013;SDS011;45684;48.358;10.746;2023-02-28T07:14:46;6.97;;;5.97;;
10013;SDS011;45684;48.358;10.746;2023-02-28T07:17:14;7.60;;;6.10;;
10013;SDS011;45684;48.358;10.746;2023-02-28T07:19:42;6.57;;;5.80;;
10013;SDS011;45684;48.358;10.746;2023-02-28T07:22:10;7.07;;;6.07;;
10013;SDS011;45684;48.358;10.746;2023-02-28T07:24:40;9.17;;;7.00;;
10013;SDS011;45684;48.358;10.746;2023-02-28T07:27:08;7.30;;;6.20;;
10013;SDS011;45684;48.358;10.746;2023-02-28T07:29:36;8.20;;;6.80;;
10013;SDS011;45684;48.358;10.746;2023-02-28T07:32:05;7.07;;;6.20;;
10013;SDS011;45684;48.358;10.746;2023-02-28T07:34:33;9.47;;;7.13;;
10013;SDS011;45684;48.358;10.746;2023-02-28T07:37:01;8.27;;;6.80;;
10013;SDS011;45684;48.358;10.746;2023-02-28T07:39:30;8.83;;;6.60;;
10013;SDS011;45684;48.358;10.746;2023-02-28T07:41:57;10.10;;;6.80;;
10013;SDS011;45684;48.358;10.746;2023-02-28T07:44:25;9.47;;;6.50;;
10013;SDS011;45684;48.358;10.746;2023-02-28T07:46:53;7.53;;;6.80;;
10013;SDS011;45684;48.358;10.746;2023-02-28T07:49:22;7.73;;;6.93;;
10013;SDS011;45684;48.358;10.746;2023-02-28T07:51:50;7.17;;;6.13;;
10013;SDS011;45684;48.358;10.746;2023-02-28T07:54:18;9.63;;;6.87;;
10013;SDS011;45684;48.358;10.746;2023-02-28T07:56:45;7.90;;;6.53;;
10013;SDS011;45684;48.358;10.746;2023-02-28T07:59:13;8.27;;;6.43;;
10013;SDS011;45684;48.358;10.746;2023-02-28T08:01:41;8.43;;;6.83;;
10013;SDS011;45684;48.358;10.746;2023-02-28T08:04:10;7.57;;;6.67;;
10013;SDS011;45684;48.358;10.746;2023-02-28T08:06:39;8.50;;;6.90;;
10013;SDS011;45684;48.358;10.746;2023-02-28T08:09:07;8.63;;;6.50;;
10013;SDS011;45684;48.358;10.746;2023-02-28T08:11:35;9.43;;;7.63;;
10013;SDS011;45684;48.358;10.746;2023-02-28T08:14:03;9.47;;;7.57;;
10013;SDS011;45684;48.358;10.746;2023-02-28T08:16:31;8.17;;;7.13;;
10013;SDS011;45684;48.358;10.746;2023-02-28T08:18:58;8.37;;;7.20;;
10013;SDS011;45684;48.358;10.746;2023-02-28T08:21:26;7.87;;;7.07;;
10013;SDS011;45684;48.358;10.746;2023-02-28T08:23:56;8.60;;;7.40;;
10013;SDS011;45684;48.358;10.746;2023-02-28T08:26:23;8.00;;;6.80;;
10013;SDS011;45684;48.358;10.746;2023-02-28T08:28:51;8.83;;;7.43;;
10013;SDS011;45684;48.358;10.746;2023-02-28T08:31:22;10.77;;;8.00;;
10013;SDS011;45684;48.358;10.746;2023-02-28T08:33:50;10.50;;;7.33;;
10013;SDS011;45684;48.358;10.746;2023-02-28T08:36:19;9.17;;;7.87;;
10013;SDS011;45684;48.358;10.746;2023-02-28T08:38:47;9.20;;;7.37;;
10013;SDS011;45684;48.358;10.746;2023-02-28T08:41:16;9.67;;;8.23;;
10013;SDS011;45684;48.358;10.746;2023-02-28T08:43:44;9.23;;;8.23;;
10013;SDS011;45684;48.358;10.746;2023-02-28T08:46:12;10.57;;;8.30;;
10013;SDS011;45684;48.358;10.746;2023-02-28T08:48:40;9.43;;;8.27;;
10013;SDS011;45684;48.358;10.746;2023-02-28T08:51:10;10.77;;;8.13;;
10013;SDS011;45684;48.358;10.746;2023-02-28T08:53:39;11.03;;;8.33;;
10013;SDS011;45684;48.358;10.746;2023-02-28T08:56:08;8.77;;;7.87;;
10013;SDS011;45684;48.358;10.746;2023-02-28T08:58:38;9.07;;;8.10;;
10013;SDS011;45684;48.358;10.746;2023-02-28T09:01:07;9.37;;;7.63;;
10013;SDS011;45684;48.358;10.746;2023-02-28T09:03:36;9.30;;;7.87;;
10013;SDS011;45684;48.358;10.746;2023-02-28T09:06:04;8.50;;;7.60;;
10013;SDS011;45684;48.358;10.746;2023-02-28T09:08:32;9.70;;;8.23;;
10013;SDS011;45684;48.358;10.746;2023-02-28T09:11:00;10.13;;;7.83;;
10013;SDS011;45684;48.358;10.746;2023-02-28T09:13:29;9.83;;;7.80;;
10013;SDS011;45684;48.358;10.746;2023-02-28T09:16:00;10.30;;;8.13;;
10013;SDS011;45684;48.358;10.746;2023-02-28T09:18:30;10.23;;;8.23;;
10013;SDS011;45684;48.358;10.746;2023-02-28T09:20:57;9.10;;;7.90;;
10013;SDS011;45684;48.358;10.746;2023-02-28T09:23:25;10.10;;;8.20;;
10013;SDS011;45684;48.358;10.746;2023-02-28T09:25:54;9.77;;;8.20;;
10013;SDS011;45684;48.358;10.746;2023-02-28T09:28:22;8.83;;;7.93;;
10013;SDS011;45684;48.358;10.746;2023-02-28T09:30:51;10.03;;;7.90;;
10013;SDS011;45684;48.358;10.746;2023-02-28T09:33:21;10.10;;;8.23;;
10013;SDS011;45684;48.358;10.746;2023-02-28T09:35:49;8.87;;;7.90;;
10013;SDS011;45684;48.358;10.746;2023-02-28T09:38:18;8.37;;;7.47;;
10013;SDS011;45684;48.358;10.746;2023-02-28T09:40:47;10.80;;;8.37;;
10013;SDS011;45684;48.358;10.746;2023-02-28T09:43:18;9.90;;;8.43;;
10013;SDS011;45684;48.358;10.746;2023-02-28T09:45:50;9.50;;;8.13;;
10013;SDS011;45684;48.358;10.746;2023-02-28T09:48:27;11.93;;;8.47;;
10013;SDS011;45684;48.358;10.746;2023-02-28T09:50:59;9.03;;;8.13;;
10013;SDS011;45684;48.358;10.746;2023-02-28T09:53:30;10.10;;;8.20;;
10013;SDS011;45684;48.358;10.746;2023-02-28T09:56:01;10.90;;;8.63;;
10013;SDS011;45684;48.358;10.746;2023-02-28T09:58:33;8.87;;;7.97;;
10013;SDS011;45684;48.358;10.746;2023-02-28T10:01:09;9.27;;;8.23;;
10013;SDS011;45684;48.358;10.746;2023-02-28T10:03:48;9.77;;;8.23;;
10013;SDS011;45684;48.358;10.746;2023-02-28T10:06:26;12.70;;;9.23;;
10013;SDS011;45684;48.358;10.746;2023-02-28T10:08:58;9.70;;;8.60;;
10013;SDS011;45684;48.358;10.746;2023-02-28T10:11:30;10.27;;;8.87;;
10013;SDS011;45684;48.358;10.746;2023-02-28T10:14:02;11.83;;;8.73;;
10013;SDS011;45684;48.358;10.746;2023-02-28T10:16:34;10.60;;;8.90;;
10013;SDS011;45684;48.358;10.746;2023-02-28T10:19:11;10.83;;;8.50;;
10013;SDS011;45684;48.358;10.746;2023-02-28T10:21:42;9.63;;;8.47;;
10013;SDS011;45684;48.358;10.746;2023-02-28T10:24:18;11.47;;;8.93;;
10013;SDS011;45684;48.358;10.746;2023-02-28T10:26:50;10.10;;;8.43;;
10013;SDS011;45684;48.358;10.746;2023-02-28T10:29:24;9.33;;;8.23;;
10013;SDS011;45684;48.358;10.746;2023-02-28T10:31:52;13.27;;;9.00;;
10013;SDS011;45684;48.358;10.746;2023-02-28T10:34:21;10.07;;;8.70;;
10013;SDS011;45684;48.358;10.746;2023-02-28T10:36:48;8.93;;;7.97;;
10013;SDS011;45684;48.358;10.746;2023-02-28T10:39:36;9.77;;;7.83;;
10013;SDS011;45684;48.358;10.746;2023-02-28T10:42:20;9.90;;;8.90;;
10013;SDS011;45684;48.358;10.746;2023-02-28T10:45:04;9.40;;;8.20;;
10013;SDS011;45684;48.358;10.746;2023-02-28T10:47:34;9.63;;;8.57;;
10013;SDS011;45684;48.358;10.746;2023-02-28T10:50:08;10.07;;;8.23;;
10013;SDS011;45684;48.358;10.746;2023-02-28T10:52:54;9.13;;;7.93;;
10013;SDS011;45684;48.358;10.746;2023-02-28T10:55:32;9.80;;;8.80;;
10013;SDS011;45684;48.358;10.746;2023-02-28T10:58:00;9.43;;;8.43;;
10013;SDS011;45684;48.358;10.746;2023-02-28T11:00:31;10.07;;;9.07;;
10013;SDS011;45684;48.358;10.746;2023-02-28T11:03:01;10.70;;;8.37;;
10013;SDS011;45684;48.358;10.746;2023-02-28T11:05:52;9.90;;;8.90;;
10013;SDS011;45684;48.358;10.746;2023-02-28T11:08:20;9.53;;;8.57;;
10013;SDS011;45684;48.358;10.746;2023-02-28T11:10:48;10.40;;;8.57;;
10013;SDS011;45684;48.358;10.746;2023-02-28T11:13:24;10.23;;;8.27;;
10013;SDS011;45684;48.358;10.746;2023-02-28T11:15:55;9.00;;;7.37;;
10013;SDS011;45684;48.358;10.746;2023-02-28T11:18:26;9.93;;;8.40;;
10013;SDS011;45684;48.358;10.746;2023-02-28T11:20:58;8.83;;;7.70;;
10013;SDS011;45684;48.358;10.746;2023-02-28T11:23:29;9.30;;;7.97;;
10013;SDS011;45684;48.358;10.746;2023-02-28T11:26:03;8.80;;;7.90;;
10013;SDS011;45684;48.358;10.746;2023-02-28T11:28:36;8.17;;;7.37;;
10013;SDS011;45684;48.358;10.746;2023-02-28T11:31:09;9.20;;;8.30;;
10013;SDS011;45684;48.358;10.746;2023-02-28T11:33:46;10.23;;;8.70;;
10013;SDS011;45684;48.358;10.746;2023-02-28T11:36:19;9.87;;;8.00;;
10013;SDS011;45684;48.358;10.746;2023-02-28T11:38:51;9.90;;;8.20;;
10013;SDS011;45684;48.358;10.746;2023-02-28T11:41:25;8.73;;;7.83;;
10013;SDS011;45684;48.358;10.746;2023-02-28T11:44:18;8.60;;;7.70;;
10013;SDS011;45684;48.358;10.746;2023-02-28T11:46:56;8.37;;;7.57;;
10013;SDS011;45684;48.358;10.746;2023-02-28T11:49:32;9.03;;;8.13;;
10013;SDS011;45684;48.358;10.746;2023-02-28T11:52:12;9.57;;;8.57;;
10013;SDS011;45684;48.358;10.746;2023-02-28T11:54:51;9.80;;;8.27;;
10013;SDS011;45684;48.358;10.746;2023-02-28T11:57:30;9.00;;;8.20;;
10013;SDS011;45684;48.358;10.746;2023-02-28T12:00:07;9.40;;;8.07;;
10013;SDS011;45684;48.358;10.746;2023-02-28T12:02:49;9.27;;;7.80;;
10013;SDS011;45684;48.358;10.746;2023-02-28T12:05:30;9.27;;;8.37;;
10013;SDS011;45684;48.358;10.746;2023-02-28T12:08:06;8.90;;;8.00;;
10013;SDS011;45684;48.358;10.746;2023-02-28T12:10:44;10.53;;;7.90;;
10013;SDS011;45684;48.358;10.746;2023-02-28T12:13:25;9.27;;;8.37;;
10013;SDS011;45684;48.358;10.746;2023-02-28T12:16:03;8.40;;;7.60;;
10013;SDS011;45684;48.358;10.746;2023-02-28T12:18:50;9.17;;;8.00;;
10013;SDS011;45684;48.358;10.746;2023-02-28T12:21:31;8.30;;;7.43;;
10013;SDS011;45684;48.358;10.746;2023-02-28T12:24:16;8.77;;;7.93;;
10013;SDS011;45684;48.358;10.746;2023-02-28T12:26:53;9.67;;;7.90;;
10013;SDS011;45684;48.358;10.746;2023-02-28T12:29:26;9.47;;;8.40;;
10013;SDS011;45684;48.358;10.746;2023-02-28T12:31:58;8.90;;;8.00;;
10013;SDS011;45684;48.358;10.746;2023-02-28T12:34:31;8.57;;;7.67;;
10013;SDS011;45684;48.358;10.746;2023-02-28T12:37:03;9.47;;;7.97;;
10013;SDS011;45684;48.358;10.746;2023-02-28T12:39:37;8.83;;;7.87;;
10013;SDS011;45684;48.358;10.746;2023-02-28T12:42:17;9.73;;;8.20;;
10013;SDS011;45684;48.358;10.746;2023-02-28T12:44:52;8.60;;;7.80;;
10013;SDS011;45684;48.358;10.746;2023-02-28T12:47:23;9.17;;;8.27;;
10013;SDS011;45684;48.358;10.746;2023-02-28T12:49:52;9.20;;;8.30;;
10013;SDS011;45684;48.358;10.746;2023-02-28T12:52:25;9.77;;;8.77;;
10013;SDS011;45684;48.358;10.746;2023-02-28T12:55:05;9.33;;;8.33;;
10013;SDS011;45684;48.358;10.746;2023-02-28T12:57:42;10.97;;;7.77;;
10013;SDS011;45684;48.358;10.746;2023-02-28T13:00:19;10.00;;;8.27;;
10013;SDS011;45684;48.358;10.746;2023-02-28T13:03:00;8.70;;;7.80;;
10013;SDS011;45684;48.358;10.746;2023-02-28T13:05:56;8.57;;;7.77;;
10013;SDS011;45684;48.358;10.746;2023-02-28T13:08:47;8.77;;;7.90;;
10013;SDS011;45684;48.358;10.746;2023-02-28T13:11:29;10.00;;;8.23;;
10013;SDS011;45684;48.358;10.746;2023-02-28T13:14:01;9.23;;;7.90;;
10013;SDS011;45684;48.358;10.746;2023-02-28T13:19:37;10.30;;;8.27;;
10013;SDS011;45684;48.358;10.746;2023-02-28T13:22:15;8.70;;;7.90;;
10013;SDS011;45684;48.358;10.746;2023-02-28T13:24:45;8.70;;;7.90;;
10013;SDS011;45684;48.358;10.746;2023-02-28T13:33:22;8.40;;;7.60;;
10013;SDS011;45684;48.358;10.746;2023-02-28T13:36:22;9.10;;;7.87;;
10013;SDS011;45684;48.358;10.746;2023-02-28T13:38:52;8.73;;;7.70;;
10013;SDS011;45684;48.358;10.746;2023-02-28T13:44:23;10.03;;;8.33;;
10013;SDS011;45684;48.358;10.746;2023-02-28T13:50:19;8.37;;;7.40;;
10013;SDS011;45684;48.358;10.746;2023-02-28T13:52:53;8.63;;;7.83;;
10013;SDS011;45684;48.358;10.746;2023-02-28T13:55:43;8.33;;;7.53;;
10013;SDS011;45684;48.358;10.746;2023-02-28T13:58:20;8.07;;;7.33;;
10013;SDS011;45684;48.358;10.746;2023-02-28T14:01:16;8.90;;;8.10;;
10013;SDS011;45684;48.358;10.746;2023-02-28T14:04:03;8.80;;;7.90;;
10013;SDS011;45684;48.358;10.746;2023-02-28T14:07:05;9.60;;;7.90;;
10013;SDS011;45684;48.358;10.746;2023-02-28T14:09:35;8.57;;;7.77;;
10013;SDS011;45684;48.358;10.746;2023-02-28T14:15:28;7.83;;;7.13;;
10013;SDS011;45684;48.358;10.746;2023-02-28T14:18:05;8.37;;;7.57;;
10013;SDS011;45684;48.358;10.746;2023-02-28T14:20:43;9.27;;;7.67;;
10013;SDS011;45684;48.358;10.746;2023-02-28T14:23:15;9.03;;;8.20;;
10013;SDS011;45684;48.358;10.746;2023-02-28T14:25:54;9.03;;;8.17;;
10013;SDS011;45684;48.358;10.746;2023-02-28T14:28:38;8.87;;;8.00;;
10013;SDS011;45684;48.358;10.746;2023-02-28T14:31:16;8.87;;;7.97;;
10013;SDS011;45684;48.358;10.746;2023-02-28T14:33:57;8.33;;;7.53;;
10013;SDS011;45684;48.358;10.746;2023-02-28T14:36:37;9.33;;;8.40;;
10013;SDS011;45684;48.358;10.746;2023-02-28T14:39:11;9.07;;;7.43;;
10013;SDS011;45684;48.358;10.746;2023-02-28T14:41:41;8.90;;;8.00;;
10013;SDS011;45684;48.358;10.746;2023-02-28T14:44:14;9.10;;;7.83;;
10013;SDS011;45684;48.358;10.746;2023-02-28T14:46:43;8.93;;;8.03;;
10013;SDS011;45684;48.358;10.746;2023-02-28T14:49:17;9.00;;;8.10;;
10013;SDS011;45684;48.358;10.746;2023-02-28T14:51:47;8.67;;;7.87;;
10013;SDS011;45684;48.358;10.746;2023-02-28T14:54:18;8.50;;;7.63;;
10013;SDS011;45684;48.358;10.746;2023-02-28T14:56:50;8.13;;;7.33;;
10013;SDS011;45684;48.358;10.746;2023-02-28T14:59:26;8.50;;;7.60;;
10013;SDS011;45684;48.358;10.746;2023-02-28T15:04:53;8.07;;;7.27;;
10013;SDS011;45684;48.358;10.746;2023-02-28T15:07:22;8.33;;;7.53;;
10013;SDS011;45684;48.358;10.746;2023-02-28T15:10:06;8.53;;;7.73;;
10013;SDS011;45684;48.358;10.746;2023-02-28T15:12:35;7.70;;;7.00;;
10013;SDS011;45684;48.358;10.746;2023-02-28T15:15:04;9.50;;;7.60;;
10013;SDS011;45684;48.358;10.746;2023-02-28T15:17:33;8.07;;;7.27;;
10013;SDS011;45684;48.358;10.746;2023-02-28T15:20:04;8.33;;;7.53;;
10013;SDS011;45684;48.358;10.746;2023-02-28T15:22:34;7.80;;;7.10;;
10013;SDS011;45684;48.358;10.746;2023-02-28T15:25:04;8.83;;;7.93;;
10013;SDS011;45684;48.358;10.746;2023-02-28T15:27:34;8.73;;;7.73;;
10013;SDS011;45684;48.358;10.746;2023-02-28T15:30:13;8.53;;;7.73;;
10013;SDS011;45684;48.358;10.746;2023-02-28T15:32:44;7.90;;;7.10;;